Terminal Aerodrome Forecast
Issued by NWS Sterling, VA

Current Version | Previous Version | Text Only | Print | Product List | Glossary Off
Versions: 1 2 3 4 5 6 7 8 9 10 11 12 13 14 15

000
FTUS41 KLWX 150500 RRA
TAFMRB
TAF
KMRB 150552Z 1506/1606 18010G18KT P6SM -SHRA OVC060
     FM150800 18010KT P6SM -SHRA OVC030
     FM150900 18011KT 6SM -SHRA OVC010
     FM151400 20013KT 3SM SHRA OVC020
     FM151800 30014KT P6SM -SHRA OVC025
     FM152100 31019G34KT P6SM OVC035
     FM160400 32018G30KT P6SM SCT200=

USA.gov is the U.S. government's official web portal to all federal, state and local government web resources and services.